Time;durP1;ratioP1;P1;durP2;ratioP2;P2;SDS_P1;SDS_P2;PMS_P1;PMS_P2;Temp;Humidity;BMP_temperature;BMP_pressure;BME280_temperature;BME280_humidity;BME280_pressure;Samples;Min_cycle;Max_cycle;Signal;HPM_P1;HPM_P2
2022/01/05 00:01:16;;;;;;;27.35;3.22;;;2.60;99.90;;;;;;5036040;28;20477;-73
2022/01/05 00:03:41;;;;;;;46.25;4.97;;;2.60;99.90;;;;;;5036485;28;20053;-73
2022/01/05 00:06:07;;;;;;;25.65;4.97;;;2.60;99.90;;;;;;5036397;28;20504;-73
2022/01/05 00:08:32;;;;;;;29.50;3.95;;;2.60;99.90;;;;;;5036324;28;20378;-73
2022/01/05 00:10:58;;;;;;;47.85;4.72;;;2.70;99.90;;;;;;5036382;28;20393;-73
2022/01/05 00:13:23;;;;;;;40.08;4.10;;;2.80;99.90;;;;;;5035823;28;20026;-73
2022/01/05 00:15:49;;;;;;;36.22;6.18;;;2.80;99.90;;;;;;5036221;28;20036;-73
2022/01/05 00:18:15;;;;;;;24.67;4.25;;;2.90;99.90;;;;;;5036075;28;20041;-73
2022/01/05 00:20:41;;;;;;;26.88;4.57;;;3.00;99.90;;;;;;5034705;28;20459;-73
2022/01/05 00:23:06;;;;;;;36.90;3.88;;;3.10;99.90;;;;;;5036161;28;20021;-73
2022/01/05 00:25:32;;;;;;;33.75;4.50;;;3.20;99.90;;;;;;5036031;28;20024;-73
2022/01/05 00:27:58;;;;;;;26.30;4.25;;;3.30;99.90;;;;;;5036102;28;20565;-73
2022/01/05 00:30:24;;;;;;;35.80;4.55;;;3.30;99.90;;;;;;5035996;28;20028;-73
2022/01/05 00:32:49;;;;;;;29.27;5.28;;;3.30;99.90;;;;;;5035343;28;20028;-72
2022/01/05 00:35:15;;;;;;;32.47;4.65;;;3.30;99.90;;;;;;5035676;28;20047;-73
2022/01/05 00:37:41;;;;;;;41.83;4.45;;;3.30;99.90;;;;;;5036606;28;20044;-73
2022/01/05 00:40:07;;;;;;;27.85;3.22;;;3.30;99.90;;;;;;5035318;28;20063;-73
2022/01/05 00:42:33;;;;;;;36.53;4.32;;;3.30;99.90;;;;;;5035441;28;20090;-73
2022/01/05 00:44:58;;;;;;;25.17;2.80;;;3.30;99.90;;;;;;5034426;28;20112;-73
2022/01/05 00:47:24;;;;;;;23.80;2.63;;;3.30;99.90;;;;;;5035667;28;20033;-73
2022/01/05 00:49:50;;;;;;;27.73;3.28;;;3.30;99.90;;;;;;5034200;28;20027;-73
2022/01/05 00:52:15;;;;;;;25.02;3.10;;;3.30;99.90;;;;;;5034117;28;20026;-73
2022/01/05 00:54:41;;;;;;;29.00;3.78;;;3.30;99.90;;;;;;5035190;28;20029;-72
2022/01/05 00:57:07;;;;;;;28.58;3.47;;;3.30;99.90;;;;;;5035420;28;20025;-73
2022/01/05 00:59:33;;;;;;;31.30;4.60;;;3.40;99.90;;;;;;5035500;28;20079;-73
2022/01/05 01:01:59;;;;;;;27.38;2.55;;;3.40;99.90;;;;;;5035437;28;20451;-73
2022/01/05 01:04:25;;;;;;;27.58;2.85;;;3.40;99.90;;;;;;5034794;28;20037;-73
2022/01/05 01:06:50;;;;;;;23.15;3.03;;;3.40;99.90;;;;;;5033952;28;20025;-73
2022/01/05 01:09:17;;;;;;;20.80;3.35;;;3.60;99.90;;;;;;5035298;28;20035;-73
2022/01/05 01:11:42;;;;;;;29.17;3.53;;;3.70;99.90;;;;;;5033375;28;20025;-73
2022/01/05 01:14:08;;;;;;;15.43;3.10;;;3.80;99.90;;;;;;5035241;28;20110;-73
2022/01/05 01:16:34;;;;;;;32.03;3.88;;;3.90;99.90;;;;;;5035219;28;20073;-73
2022/01/05 01:18:59;;;;;;;21.38;3.05;;;3.90;99.90;;;;;;5035363;28;20036;-73
2022/01/05 01:21:25;;;;;;;23.02;2.55;;;3.80;99.90;;;;;;5034532;28;20021;-73
2022/01/05 01:23:56;;;;;;;26.70;3.22;;;3.50;99.90;;;;;;5035089;28;20087;-73
2022/01/05 01:26:27;;;;;;;35.13;3.55;;;3.30;99.90;;;;;;5034930;28;20033;-73
2022/01/05 01:28:54;;;;;;;35.33;4.10;;;3.10;99.90;;;;;;5034960;28;20022;-73
2022/01/05 01:31:20;;;;;;;28.02;4.03;;;3.10;99.90;;;;;;5034405;28;20492;-73
2022/01/05 01:33:47;;;;;;;26.77;4.30;;;3.00;99.90;;;;;;5035140;28;20028;-73
2022/01/05 01:36:13;;;;;;;39.47;4.75;;;3.00;99.90;;;;;;5033477;28;20120;-73
2022/01/05 01:38:38;;;;;;;28.13;4.30;;;3.10;99.90;;;;;;5034745;28;20125;-73
2022/01/05 01:41:04;;;;;;;17.85;3.33;;;3.20;99.90;;;;;;5034203;28;20025;-73
2022/01/05 01:43:30;;;;;;;25.23;4.65;;;3.20;99.90;;;;;;5034943;28;20057;-73
2022/01/05 01:45:55;;;;;;;27.63;3.08;;;3.30;99.90;;;;;;5034014;28;20068;-73
2022/01/05 01:48:21;;;;;;;27.23;3.95;;;3.40;99.90;;;;;;5034496;28;20380;-73
2022/01/05 01:50:47;;;;;;;37.40;4.88;;;3.50;99.90;;;;;;5034521;28;20053;-73
2022/01/05 01:53:13;;;;;;;34.70;5.35;;;3.60;99.90;;;;;;5034447;28;20025;-73
2022/01/05 01:55:39;;;;;;;23.38;3.22;;;3.50;99.90;;;;;;5034508;28;20032;-73
2022/01/05 01:58:06;;;;;;;33.65;4.97;;;3.50;99.90;;;;;;5032394;28;20112;-73
2022/01/05 02:00:32;;;;;;;56.17;6.30;;;3.60;99.90;;;;;;5034307;28;20067;-73
2022/01/05 02:02:58;;;;;;;38.58;6.30;;;3.70;99.90;;;;;;5033676;28;20069;-73
2022/01/05 02:05:23;;;;;;;53.20;6.72;;;3.70;99.90;;;;;;5032877;28;20026;-73
2022/01/05 02:07:49;;;;;;;40.13;5.68;;;3.80;99.90;;;;;;5034070;28;20025;-73
2022/01/05 02:10:16;;;;;;;40.58;5.13;;;3.80;99.90;;;;;;5032882;28;20048;-73
2022/01/05 02:12:42;;;;;;;41.03;5.50;;;4.00;99.90;;;;;;5033562;28;20022;-73
2022/01/05 02:15:09;;;;;;;34.22;4.30;;;4.10;99.90;;;;;;5034079;28;20542;-73
2022/01/05 02:17:47;;;;;;;33.05;4.78;;;4.20;99.90;;;;;;5033795;28;20064;-73
2022/01/05 02:20:22;;;;;;;28.95;5.18;;;4.30;99.90;;;;;;5034265;28;20028;-73
2022/01/05 02:22:48;;;;;;;37.05;6.50;;;4.40;99.90;;;;;;5034212;28;20359;-73
2022/01/05 02:25:14;;;;;;;38.38;5.88;;;4.50;99.90;;;;;;5033540;28;20021;-72
2022/01/05 02:27:42;;;;;;;35.70;5.35;;;4.40;99.90;;;;;;5033760;28;20065;-73
2022/01/05 02:30:14;;;;;;;32.95;4.90;;;4.30;99.90;;;;;;5033857;28;20029;-74
2022/01/05 02:32:40;;;;;;;49.30;6.78;;;4.40;99.90;;;;;;5032542;28;20025;-74
2022/01/05 02:35:08;;;;;;;36.58;5.40;;;4.40;99.90;;;;;;5033232;28;20091;-74
2022/01/05 02:37:40;;;;;;;49.90;5.50;;;4.40;99.90;;;;;;5033615;28;20092;-74
2022/01/05 02:40:07;;;;;;;45.45;5.22;;;4.50;99.90;;;;;;5033528;28;20018;-73
2022/01/05 02:42:33;;;;;;;38.53;5.85;;;4.50;99.90;;;;;;5032642;28;20025;-71
2022/01/05 02:44:58;;;;;;;27.08;3.97;;;4.50;99.90;;;;;;5033541;28;20033;-72
2022/01/05 02:47:24;;;;;;;19.05;3.03;;;4.30;99.90;;;;;;5033160;28;20035;-73
2022/01/05 02:49:49;;;;;;;31.38;3.67;;;4.10;99.90;;;;;;5033462;28;20032;-73
2022/01/05 02:52:15;;;;;;;41.40;5.32;;;4.00;99.90;;;;;;5033451;28;20030;-73
2022/01/05 02:54:44;;;;;;;36.90;4.00;;;3.90;99.90;;;;;;5032133;28;20113;-73
2022/01/05 02:57:09;;;;;;;40.70;4.72;;;3.90;99.90;;;;;;5033053;28;20431;-73
2022/01/05 02:59:35;;;;;;;47.58;6.22;;;3.80;99.90;;;;;;5033511;28;20112;-73
2022/01/05 03:02:00;;;;;;;42.72;4.47;;;3.90;99.90;;;;;;5033587;28;20029;-73
2022/01/05 03:04:26;;;;;;;40.72;4.63;;;3.90;99.90;;;;;;5033259;28;20155;-73
2022/01/05 03:06:52;;;;;;;33.70;5.38;;;4.00;99.90;;;;;;5032599;28;20032;-72
2022/01/05 03:09:19;;;;;;;49.50;4.65;;;4.00;99.90;;;;;;5033504;28;20017;-72
2022/01/05 03:11:44;;;;;;;39.00;4.68;;;4.00;99.90;;;;;;5033498;28;20017;-72
2022/01/05 03:14:10;;;;;;;34.25;4.05;;;4.10;99.90;;;;;;5033249;28;20104;-72
2022/01/05 03:16:36;;;;;;;31.38;3.85;;;4.00;99.90;;;;;;5032847;28;20087;-72
2022/01/05 03:19:02;;;;;;;15.73;2.10;;;3.90;99.90;;;;;;5033441;28;20037;-72
2022/01/05 03:21:27;;;;;;;21.58;2.63;;;3.80;99.90;;;;;;5032701;28;20028;-72
2022/01/05 03:23:53;;;;;;;26.80;2.40;;;3.80;99.90;;;;;;5033048;28;20112;-73
2022/01/05 03:26:18;;;;;;;25.63;3.58;;;3.70;99.90;;;;;;5032891;28;20033;-73
2022/01/05 03:28:44;;;;;;;22.73;2.63;;;3.60;99.90;;;;;;5033052;28;20021;-73
2022/01/05 03:31:09;;;;;;;26.67;1.98;;;3.60;99.90;;;;;;5032478;28;20026;-73
2022/01/05 03:33:35;;;;;;;7.47;1.20;;;3.50;99.90;;;;;;5032996;28;20030;-73
2022/01/05 03:36:01;;;;;;;15.23;2.55;;;3.50;99.90;;;;;;5033343;28;20029;-73
2022/01/05 03:38:28;;;;;;;36.47;2.92;;;3.40;99.90;;;;;;5033173;28;20110;-73
2022/01/05 03:40:54;;;;;;;25.25;2.67;;;3.40;99.90;;;;;;5032668;28;20030;-73
2022/01/05 03:43:19;;;;;;;29.77;3.45;;;3.40;99.90;;;;;;5031694;28;20057;-73
2022/01/05 03:45:45;;;;;;;27.25;3.28;;;3.40;99.90;;;;;;5032799;28;20060;-73
2022/01/05 03:48:13;;;;;;;24.00;3.17;;;3.40;99.90;;;;;;5032246;28;20385;-73
2022/01/05 03:50:39;;;;;;;23.85;3.65;;;3.40;99.90;;;;;;5032864;28;20017;-73
2022/01/05 03:53:06;;;;;;;22.50;2.88;;;3.50;99.90;;;;;;5032615;28;20493;-73
2022/01/05 03:55:33;;;;;;;24.17;3.05;;;3.50;99.90;;;;;;5032730;28;20040;-73
2022/01/05 03:57:59;;;;;;;28.85;2.78;;;3.50;99.90;;;;;;5032045;28;20049;-73
2022/01/05 04:00:27;;;;;;;24.45;2.95;;;3.50;99.90;;;;;;5032784;28;20520;-73
2022/01/05 04:02:53;;;;;;;28.67;3.45;;;3.50;99.90;;;;;;5032819;28;20017;-73
2022/01/05 04:05:18;;;;;;;30.77;2.97;;;3.50;99.90;;;;;;5032966;28;20021;-74
2022/01/05 04:07:44;;;;;;;19.58;1.98;;;3.60;99.90;;;;;;5030883;28;20473;-73
2022/01/05 04:10:10;;;;;;;22.58;3.22;;;3.60;99.90;;;;;;5032656;28;20037;-74
2022/01/05 04:12:35;;;;;;;30.33;4.05;;;3.60;99.90;;;;;;5020522;28;20490;-73
2022/01/05 04:15:02;;;;;;;29.17;4.43;;;3.60;99.90;;;;;;5013151;28;20088;-73
2022/01/05 04:17:27;;;;;;;24.40;3.47;;;3.60;99.90;;;;;;5012809;28;20397;-73
2022/01/05 04:19:53;;;;;;;25.50;4.35;;;3.70;99.90;;;;;;5022823;28;20022;-74
2022/01/05 04:22:18;;;;;;;30.65;2.83;;;3.70;99.90;;;;;;5032846;28;20053;-73
2022/01/05 04:24:44;;;;;;;30.10;2.42;;;3.80;99.90;;;;;;5031283;28;20045;-73
2022/01/05 04:27:10;;;;;;;23.13;2.58;;;3.80;99.90;;;;;;5035480;28;20022;-74
2022/01/05 04:29:35;;;;;;;24.13;3.92;;;3.70;99.90;;;;;;5035522;28;20104;-73
2022/01/05 04:32:01;;;;;;;29.95;3.55;;;3.80;99.90;;;;;;5036211;28;20025;-73
2022/01/05 04:34:27;;;;;;;20.42;3.00;;;3.80;99.90;;;;;;5036303;28;20026;-73
2022/01/05 04:36:52;;;;;;;35.65;2.92;;;3.90;99.90;;;;;;5035841;28;20072;-73
2022/01/05 04:39:18;;;;;;;18.08;2.80;;;3.90;99.90;;;;;;5034103;28;20144;-74
2022/01/05 04:41:43;;;;;;;19.77;2.13;;;3.90;99.90;;;;;;5035862;28;20416;-73
2022/01/05 04:44:09;;;;;;;25.15;2.95;;;4.00;99.90;;;;;;5035814;28;20037;-74
2022/01/05 04:46:35;;;;;;;26.38;4.93;;;4.10;99.90;;;;;;5035555;28;20022;-73
2022/01/05 04:49:00;;;;;;;37.58;3.85;;;4.20;99.90;;;;;;5035469;28;20415;-73
2022/01/05 04:51:26;;;;;;;39.55;5.25;;;4.30;99.90;;;;;;5035568;28;20389;-73
2022/01/05 04:53:51;;;;;;;47.53;4.05;;;4.30;99.90;;;;;;5035619;28;20021;-73
2022/01/05 04:56:18;;;;;;;41.78;3.40;;;4.10;99.90;;;;;;5033882;28;20421;-72
2022/01/05 04:58:43;;;;;;;42.58;5.00;;;4.10;99.90;;;;;;5035478;28;20026;-72
2022/01/05 05:01:09;;;;;;;22.08;2.97;;;4.00;99.90;;;;;;5035549;28;20503;-73
2022/01/05 05:03:34;;;;;;;20.85;3.63;;;4.00;99.90;;;;;;5035656;28;20523;-73
2022/01/05 05:06:00;;;;;;;30.30;2.83;;;3.90;99.90;;;;;;5035338;28;20397;-73
2022/01/05 05:08:25;;;;;;;21.48;2.90;;;3.90;99.90;;;;;;5035318;28;20504;-73
2022/01/05 05:10:51;;;;;;;26.95;5.07;;;4.00;99.90;;;;;;5035450;28;20036;-73
2022/01/05 05:13:16;;;;;;;60.70;10.30;;;4.00;99.90;;;;;;5033958;28;20024;-72
2022/01/05 05:15:42;;;;;;;18.67;2.67;;;4.00;99.90;;;;;;5035457;28;20033;-72
2022/01/05 05:18:08;;;;;;;22.38;2.10;;;3.90;99.90;;;;;;5033775;28;20036;-73
2022/01/05 05:20:34;;;;;;;20.17;2.92;;;3.80;99.90;;;;;;5035311;28;20029;-73
2022/01/05 05:23:01;;;;;;;18.38;1.85;;;3.80;99.90;;;;;;5035393;28;20096;-73
2022/01/05 05:25:27;;;;;;;22.23;2.47;;;3.70;99.90;;;;;;5035601;28;20029;-73
2022/01/05 05:27:52;;;;;;;21.05;2.47;;;3.60;99.90;;;;;;5033681;28;20031;-73
2022/01/05 05:30:18;;;;;;;23.92;2.80;;;3.60;99.90;;;;;;5034999;28;20018;-73
2022/01/05 05:32:44;;;;;;;23.27;2.00;;;3.60;99.90;;;;;;5035197;28;20022;-73
2022/01/05 05:35:10;;;;;;;24.48;2.95;;;3.60;99.90;;;;;;5034898;28;20500;-73
2022/01/05 05:37:35;;;;;;;30.17;2.80;;;3.60;99.90;;;;;;5032897;28;20026;-73
2022/01/05 05:40:01;;;;;;;14.75;1.80;;;3.60;99.90;;;;;;5034890;28;20026;-73
2022/01/05 05:42:27;;;;;;;39.00;2.85;;;3.60;99.90;;;;;;5035036;28;20032;-73
2022/01/05 05:44:53;;;;;;;25.25;3.28;;;3.60;99.90;;;;;;5034317;28;20026;-73
2022/01/05 05:47:18;;;;;;;32.50;2.92;;;3.70;99.90;;;;;;5035048;28;20038;-73
2022/01/05 05:49:45;;;;;;;28.33;2.83;;;3.70;99.90;;;;;;5034562;28;20029;-73
2022/01/05 05:52:12;;;;;;;14.23;2.45;;;3.80;99.90;;;;;;5034855;28;20485;-73
2022/01/05 05:54:37;;;;;;;24.80;2.95;;;3.80;99.90;;;;;;5034497;28;20381;-73
2022/01/05 05:57:04;;;;;;;19.60;2.72;;;3.70;99.90;;;;;;5034410;28;20032;-73
2022/01/05 05:59:29;;;;;;;25.27;3.38;;;3.70;99.90;;;;;;5034326;28;20029;-73
2022/01/05 06:01:55;;;;;;;34.47;3.38;;;3.60;99.90;;;;;;5034328;28;20370;-73
2022/01/05 06:04:20;;;;;;;20.25;3.17;;;3.60;99.90;;;;;;5034302;28;20091;-73
2022/01/05 06:06:46;;;;;;;34.95;3.83;;;3.60;99.90;;;;;;5034051;28;20489;-73
2022/01/05 06:09:11;;;;;;;36.58;3.60;;;3.70;99.90;;;;;;5034208;28;20029;-73
2022/01/05 06:11:37;;;;;;;30.98;3.22;;;3.70;99.90;;;;;;5034127;28;20096;-73
2022/01/05 06:14:02;;;;;;;24.98;3.53;;;3.70;99.90;;;;;;5034090;28;20506;-73
2022/01/05 06:16:28;;;;;;;37.90;3.47;;;3.80;99.90;;;;;;5033744;28;20026;-73
2022/01/05 06:18:53;;;;;;;34.78;4.13;;;3.80;99.90;;;;;;5089628;22;20048;-71
2022/01/05 06:21:19;;;;;;;28.80;3.40;;;3.80;99.90;;;;;;5034239;28;20025;-71
2022/01/05 06:23:44;;;;;;;51.90;5.43;;;3.80;99.90;;;;;;5033893;28;20029;-71
2022/01/05 06:26:10;;;;;;;27.40;3.17;;;3.90;99.90;;;;;;5033849;28;20029;-71
2022/01/05 06:28:36;;;;;;;38.20;5.90;;;3.90;99.90;;;;;;5033801;28;20071;-71
2022/01/05 06:31:01;;;;;;;55.60;4.68;;;3.80;99.90;;;;;;5033854;28;20091;-71
2022/01/05 06:33:27;;;;;;;30.45;3.63;;;3.70;99.90;;;;;;5034040;28;20029;-71
2022/01/05 06:35:52;;;;;;;42.22;4.68;;;3.60;99.90;;;;;;5033675;28;20060;-71
2022/01/05 06:38:18;;;;;;;42.63;4.78;;;3.60;99.90;;;;;;5032377;28;20026;-71
2022/01/05 06:40:44;;;;;;;31.80;3.70;;;3.50;99.90;;;;;;5033887;28;20496;-71
2022/01/05 06:43:09;;;;;;;39.08;4.28;;;3.50;99.90;;;;;;5033622;28;20028;-71
2022/01/05 06:45:35;;;;;;;33.97;3.97;;;3.40;99.90;;;;;;5033488;28;20496;-71
2022/01/05 06:48:00;;;;;;;52.85;4.88;;;3.50;99.90;;;;;;5033078;28;20500;-71
2022/01/05 06:50:26;;;;;;;30.40;4.18;;;3.40;99.90;;;;;;5033019;28;20034;-71
2022/01/05 06:52:55;;;;;;;39.35;5.72;;;3.40;99.90;;;;;;5033695;28;20029;-71
2022/01/05 06:55:21;;;;;;;46.67;3.88;;;3.50;99.90;;;;;;5034240;28;20369;-71
2022/01/05 06:57:47;;;;;;;31.35;3.00;;;3.60;99.90;;;;;;5032228;28;20026;-71
2022/01/05 07:00:13;;;;;;;33.35;4.40;;;3.70;99.90;;;;;;5033457;28;20370;-71
2022/01/05 07:02:39;;;;;;;40.58;3.97;;;3.70;99.90;;;;;;5033339;28;20037;-71
2022/01/05 07:05:06;;;;;;;31.92;3.63;;;3.60;99.90;;;;;;5033125;28;20071;-71
2022/01/05 07:07:32;;;;;;;30.20;4.65;;;3.60;99.90;;;;;;5033156;28;20187;-71
2022/01/05 07:09:58;;;;;;;39.85;5.20;;;3.60;99.90;;;;;;5033268;28;20026;-71
2022/01/05 07:12:23;;;;;;;43.75;3.45;;;3.60;99.90;;;;;;5033154;28;20155;-71
2022/01/05 07:14:49;;;;;;;35.60;3.78;;;3.70;99.90;;;;;;5033205;28;20052;-71
2022/01/05 07:17:15;;;;;;;44.67;4.15;;;3.70;99.90;;;;;;5031737;28;20029;-71
2022/01/05 07:19:40;;;;;;;36.05;3.22;;;3.80;99.90;;;;;;5033801;28;20030;-71
2022/01/05 07:22:06;;;;;;;46.53;4.57;;;3.80;99.90;;;;;;5033386;28;20026;-71
2022/01/05 07:24:32;;;;;;;41.85;4.68;;;4.00;99.90;;;;;;5033016;28;20030;-71
2022/01/05 07:26:57;;;;;;;45.35;4.78;;;4.10;99.90;;;;;;5031689;28;20026;-71
2022/01/05 07:29:23;;;;;;;36.88;4.10;;;4.10;99.90;;;;;;5033025;28;20024;-71
2022/01/05 07:31:48;;;;;;;42.88;3.35;;;4.00;99.90;;;;;;5032955;28;20026;-71
2022/01/05 07:34:14;;;;;;;28.20;3.00;;;3.90;99.90;;;;;;5033563;28;20021;-71
2022/01/05 07:36:40;;;;;;;25.13;3.30;;;3.90;99.90;;;;;;5032730;28;20053;-71
2022/01/05 07:39:07;;;;;;;18.42;2.78;;;3.90;99.90;;;;;;5032638;28;20099;-71
2022/01/05 07:41:34;;;;;;;39.53;4.22;;;3.80;99.90;;;;;;5032902;28;20499;-71
2022/01/05 07:43:59;;;;;;;26.88;3.75;;;3.80;99.90;;;;;;5033211;28;20036;-71
2022/01/05 07:46:25;;;;;;;24.52;3.75;;;3.90;99.90;;;;;;5032868;28;20029;-71
2022/01/05 07:48:51;;;;;;;21.42;2.83;;;3.90;99.90;;;;;;5032824;28;20032;-71
2022/01/05 07:51:16;;;;;;;21.67;2.25;;;3.90;99.90;;;;;;5033150;28;20021;-71
2022/01/05 07:53:42;;;;;;;31.58;3.05;;;4.00;99.90;;;;;;5032723;28;20034;-71
2022/01/05 07:56:08;;;;;;;21.25;3.00;;;3.90;99.90;;;;;;5033356;28;20453;-71
2022/01/05 07:58:35;;;;;;;47.90;3.78;;;3.90;99.90;;;;;;5032825;28;20570;-71
2022/01/05 08:01:02;;;;;;;17.90;2.10;;;3.80;99.90;;;;;;5034612;28;20029;-71
2022/01/05 08:03:28;;;;;;;27.30;3.50;;;3.70;99.90;;;;;;5036566;28;20029;-71
2022/01/05 08:05:53;;;;;;;21.17;3.20;;;3.70;99.90;;;;;;5037039;28;20039;-71
2022/01/05 08:08:19;;;;;;;25.67;2.70;;;3.60;99.90;;;;;;5036994;28;20026;-71
2022/01/05 08:10:44;;;;;;;30.23;3.40;;;3.50;99.90;;;;;;5036395;28;20026;-71
2022/01/05 08:13:10;;;;;;;20.45;2.33;;;3.50;99.90;;;;;;5036932;28;20033;-71
2022/01/05 08:15:35;;;;;;;15.05;2.10;;;3.40;99.90;;;;;;5036650;28;20104;-71
2022/01/05 08:18:01;;;;;;;21.75;1.50;;;3.40;99.90;;;;;;5036261;28;20069;-71
2022/01/05 08:20:27;;;;;;;25.52;3.42;;;3.40;99.90;;;;;;5036552;28;20081;-70
2022/01/05 08:22:53;;;;;;;29.55;2.47;;;3.40;99.90;;;;;;5036502;28;20057;-71
2022/01/05 08:25:20;;;;;;;26.63;2.75;;;3.60;99.90;;;;;;5036393;28;20076;-71
2022/01/05 08:27:46;;;;;;;37.40;3.92;;;3.60;99.90;;;;;;5035789;28;20029;-71
2022/01/05 08:30:20;;;;;;;31.15;3.20;;;3.70;99.90;;;;;;5036103;28;20481;-71
2022/01/05 08:32:47;;;;;;;20.58;3.35;;;3.90;99.90;;;;;;5036616;28;20028;-71
2022/01/05 08:35:15;;;;;;;22.30;2.92;;;4.10;99.90;;;;;;5036075;28;20025;-71
2022/01/05 08:37:44;;;;;;;17.75;2.17;;;4.30;99.90;;;;;;5035989;28;20022;-71
2022/01/05 08:40:12;;;;;;;29.50;2.05;;;4.40;99.90;;;;;;5036480;28;20040;-71
2022/01/05 08:42:38;;;;;;;17.35;2.05;;;4.50;99.90;;;;;;5034599;28;20056;-71
2022/01/05 08:45:04;;;;;;;18.98;4.15;;;4.60;99.90;;;;;;5035883;28;20022;-71
2022/01/05 08:47:30;;;;;;;25.63;3.95;;;4.70;99.90;;;;;;5034066;28;20067;-71
2022/01/05 08:49:56;;;;;;;17.88;2.55;;;4.60;99.90;;;;;;5035582;28;20055;-71
2022/01/05 08:52:21;;;;;;;16.17;2.47;;;4.50;99.90;;;;;;5035688;28;20029;-71
2022/01/05 08:54:47;;;;;;;20.13;2.08;;;4.40;99.90;;;;;;5035683;28;20033;-71
2022/01/05 08:57:13;;;;;;;26.65;3.05;;;4.30;99.90;;;;;;5035555;28;20036;-71
2022/01/05 08:59:40;;;;;;;17.30;1.60;;;4.30;99.90;;;;;;5035502;28;20032;-71
2022/01/05 09:02:06;;;;;;;16.20;1.90;;;4.20;99.90;;;;;;5035868;28;20027;-71
2022/01/05 09:04:31;;;;;;;12.05;1.27;;;4.10;99.90;;;;;;5035434;28;20032;-71
2022/01/05 09:06:59;;;;;;;11.40;2.47;;;4.10;99.90;;;;;;5035261;28;20465;-71
2022/01/05 09:09:25;;;;;;;12.38;1.45;;;4.10;99.90;;;;;;5035305;28;20025;-71
2022/01/05 09:11:51;;;;;;;22.70;1.75;;;4.00;99.90;;;;;;5035037;28;20018;-71
2022/01/05 09:14:16;;;;;;;23.52;1.92;;;4.00;99.90;;;;;;5035839;28;20021;-71
2022/01/05 09:16:42;;;;;;;21.02;2.28;;;4.00;99.90;;;;;;5035338;28;20095;-71
2022/01/05 09:19:07;;;;;;;17.08;2.35;;;4.00;99.90;;;;;;5034967;28;20045;-71
2022/01/05 09:21:33;;;;;;;20.15;2.90;;;3.90;99.90;;;;;;5035152;28;20034;-71
2022/01/05 09:23:59;;;;;;;16.45;2.25;;;3.90;99.90;;;;;;5034944;28;20167;-71
2022/01/05 09:26:24;;;;;;;21.27;1.67;;;3.80;99.90;;;;;;5035074;28;20389;-71
2022/01/05 09:28:50;;;;;;;17.88;2.25;;;3.80;99.90;;;;;;5034906;28;20028;-71
2022/01/05 09:31:15;;;;;;;24.58;2.08;;;3.90;99.90;;;;;;5035281;28;20030;-71
2022/01/05 09:33:41;;;;;;;24.25;2.20;;;3.80;99.90;;;;;;5034951;28;20022;-71
2022/01/05 09:36:16;;;;;;;24.58;2.05;;;3.80;99.90;;;;;;5034424;28;20050;-71
2022/01/05 09:44:03;;;;;;;16.95;2.53;;;3.80;99.90;;;;;;5035326;28;20476;-71
2022/01/05 09:46:30;;;;;;;36.92;2.53;;;3.80;99.90;;;;;;5034875;28;20083;-71
2022/01/05 09:49:11;;;;;;;27.90;2.35;;;3.80;99.90;;;;;;5034525;28;20048;-71
2022/01/05 09:51:41;;;;;;;23.35;2.72;;;3.80;99.90;;;;;;5033335;28;20022;-71
2022/01/05 09:54:08;;;;;;;11.80;2.03;;;3.80;99.90;;;;;;5034514;28;20052;-70
2022/01/05 09:56:34;;;;;;;26.80;2.03;;;3.80;99.90;;;;;;5034456;28;20176;-71
2022/01/05 09:59:01;;;;;;;20.05;2.38;;;3.80;99.90;;;;;;5034375;28;20516;-71
2022/01/05 10:01:31;;;;;;;21.75;1.88;;;3.90;99.90;;;;;;5034699;28;20044;-71
2022/01/05 10:04:00;;;;;;;22.00;2.03;;;3.90;99.90;;;;;;5034730;28;20392;-71
2022/01/05 10:06:26;;;;;;;20.88;1.83;;;3.90;99.90;;;;;;5034168;28;20037;-70
2022/01/05 10:08:53;;;;;;;18.48;2.00;;;3.90;99.90;;;;;;5032939;28;20057;-71
2022/01/05 10:11:23;;;;;;;35.60;4.50;;;4.00;99.90;;;;;;5034234;28;20108;-70
2022/01/05 10:13:52;;;;;;;15.82;2.38;;;4.10;99.90;;;;;;5034202;28;20021;-71
2022/01/05 10:16:17;;;;;;;16.60;1.90;;;4.10;99.90;;;;;;5034375;28;20083;-71
2022/01/05 10:18:44;;;;;;;36.67;4.40;;;4.20;99.90;;;;;;5033985;28;20041;-71
2022/01/05 10:21:13;;;;;;;28.05;2.83;;;4.30;99.90;;;;;;5034140;28;20048;-73
2022/01/05 10:23:39;;;;;;;29.75;2.75;;;4.30;99.90;;;;;;5033596;28;20512;-71
2022/01/05 10:26:20;;;;;;;24.10;2.30;;;4.40;99.90;;;;;;5033885;28;20052;-71
2022/01/05 10:28:46;;;;;;;26.38;2.47;;;4.50;99.90;;;;;;5034024;28;20032;-71
2022/01/05 10:31:25;;;;;;;33.00;2.20;;;4.50;99.90;;;;;;5033816;28;20052;-71
2022/01/05 10:33:51;;;;;;;21.15;2.25;;;4.40;99.90;;;;;;5033891;28;20094;-70
2022/01/05 10:36:16;;;;;;;21.38;3.05;;;4.30;99.90;;;;;;5033766;28;20026;-71
2022/01/05 10:38:53;;;;;;;18.45;2.63;;;4.20;99.90;;;;;;5032979;28;20531;-71
2022/01/05 10:41:20;;;;;;;21.25;1.70;;;4.20;99.90;;;;;;5033675;28;20037;-71
2022/01/05 10:44:15;;;;;;;23.73;2.40;;;4.20;99.90;;;;;;5020009;28;20402;-71
2022/01/05 10:46:46;;;;;;;15.20;2.22;;;4.20;99.90;;;;;;5014074;28;20393;-71
2022/01/05 10:49:25;;;;;;;24.05;3.88;;;4.10;99.90;;;;;;5012527;28;20026;-71
2022/01/05 10:51:50;;;;;;;24.92;2.45;;;4.10;99.90;;;;;;5013826;28;20121;-71
2022/01/05 10:54:20;;;;;;;28.75;5.38;;;4.10;99.90;;;;;;5013594;28;20021;-71
2022/01/05 10:56:46;;;;;;;20.33;2.03;;;4.00;99.90;;;;;;5014161;28;20382;-71
2022/01/05 10:59:15;;;;;;;18.27;2.15;;;4.00;99.90;;;;;;5033216;28;20025;-71
2022/01/05 11:01:42;;;;;;;16.95;2.30;;;4.00;99.90;;;;;;5033642;28;20034;-71
2022/01/05 11:04:18;;;;;;;21.02;2.38;;;4.00;99.90;;;;;;5033409;28;20026;-71
2022/01/05 11:06:59;;;;;;;18.73;2.30;;;4.10;99.90;;;;;;5033328;28;20037;-71
2022/01/05 11:09:25;;;;;;;12.77;2.92;;;4.20;99.90;;;;;;5033346;28;20067;-71
2022/01/05 11:11:51;;;;;;;15.60;2.08;;;4.30;99.90;;;;;;5031392;28;20100;-71
2022/01/05 11:14:19;;;;;;;5.30;1.40;;;4.40;99.90;;;;;;5033264;28;20097;-71
2022/01/05 11:16:47;;;;;;;7.00;1.83;;;4.50;99.90;;;;;;5028815;28;20034;-71
2022/01/05 11:19:22;;;;;;;23.67;7.22;;;4.50;99.90;;;;;;5033097;28;20061;-72
2022/01/05 11:22:08;;;;;;;17.25;3.00;;;4.60;99.90;;;;;;5032937;28;20117;-71
2022/01/05 11:24:44;;;;;;;11.73;2.85;;;4.70;99.90;;;;;;5017940;28;20402;-71
2022/01/05 11:27:14;;;;;;;10.65;2.10;;;4.70;99.90;;;;;;5012022;28;20482;-72
2022/01/05 11:29:40;;;;;;;22.80;7.28;;;4.70;99.90;;;;;;5013605;28;20105;-71
2022/01/05 11:32:08;;;;;;;10.88;4.03;;;4.70;99.90;;;;;;5021215;28;20053;-71
2022/01/05 11:34:33;;;;;;;28.40;9.50;;;4.80;99.90;;;;;;5033900;28;20021;-71
2022/01/05 11:37:02;;;;;;;21.67;6.75;;;4.90;99.90;;;;;;5029471;28;20022;-71
2022/01/05 11:39:34;;;;;;;28.05;6.57;;;4.90;99.90;;;;;;5017323;28;20101;-72
2022/01/05 11:42:05;;;;;;;36.20;7.13;;;5.00;99.90;;;;;;5017037;28;20033;-71
2022/01/05 11:44:47;;;;;;;21.33;7.88;;;5.10;99.90;;;;;;5035023;28;20051;-71
2022/01/05 11:47:30;;;;;;;33.85;4.63;;;5.10;99.90;;;;;;5037290;28;20500;-71
2022/01/05 11:50:26;;;;;;;24.63;4.63;;;5.20;99.90;;;;;;5037165;28;20111;-72
2022/01/05 11:52:58;;;;;;;12.20;2.75;;;5.50;99.90;;;;;;5029901;28;20436;-71
2022/01/05 11:55:24;;;;;;;21.50;2.97;;;5.70;99.90;;;;;;5036800;28;20079;-71
2022/01/05 11:58:21;;;;;;;21.35;3.28;;;5.90;99.90;;;;;;5036940;28;20021;-71
2022/01/05 12:01:07;;;;;;;28.90;4.10;;;5.90;99.90;;;;;;5036729;28;20026;-72
2022/01/05 12:03:57;;;;;;;30.88;4.47;;;5.80;99.90;;;;;;5036539;28;20029;-72
2022/01/05 12:06:24;;;;;;;32.85;5.20;;;5.80;99.90;;;;;;5036861;28;20143;-72
2022/01/05 12:08:53;;;;;;;28.48;3.15;;;5.70;99.90;;;;;;5036557;28;20026;-72
2022/01/05 12:11:41;;;;;;;24.00;2.95;;;5.70;99.90;;;;;;5035252;28;20041;-72
2022/01/05 12:14:20;;;;;;;19.77;3.15;;;5.90;99.90;;;;;;5036811;28;20021;-72
2022/01/05 12:17:11;;;;;;;32.30;3.88;;;5.70;99.90;;;;;;5036484;28;20032;-72
2022/01/05 12:19:46;;;;;;;26.27;3.05;;;5.50;99.90;;;;;;5059664;22;20041;-75
2022/01/05 12:22:15;;;;;;;30.60;5.88;;;5.40;99.90;;;;;;5036584;28;20121;-74
2022/01/05 12:24:56;;;;;;;22.08;3.90;;;5.40;99.90;;;;;;5036488;28;20080;-75
2022/01/05 12:27:24;;;;;;;204.52;48.28;;;5.50;99.90;;;;;;5036056;28;20033;-74
2022/01/05 12:29:50;;;;;;;57.83;14.80;;;5.60;99.90;;;;;;5036111;28;20057;-75
2022/01/05 12:32:34;;;;;;;20.30;6.97;;;5.80;99.90;;;;;;5036381;28;20029;-74
2022/01/05 12:35:08;;;;;;;34.75;5.80;;;5.80;99.90;;;;;;5034827;28;20022;-75
2022/01/05 12:37:37;;;;;;;15.73;3.45;;;5.70;99.90;;;;;;5036047;28;20026;-75
2022/01/05 12:40:43;;;;;;;27.40;5.65;;;5.70;99.90;;;;;;5036199;28;20056;-75
2022/01/05 12:43:08;;;;;;;50.08;10.00;;;5.60;99.90;;;;;;5006069;28;20428;-75
2022/01/05 12:45:53;;;;;;;24.10;3.33;;;5.60;99.90;;;;;;5035645;28;20036;-75
2022/01/05 12:48:39;;;;;;;20.08;5.90;;;5.50;99.90;;;;;;5035842;28;20018;-74
2022/01/05 12:51:17;;;;;;;20.85;3.35;;;5.40;99.90;;;;;;5036364;28;20028;-75
2022/01/05 12:53:55;;;;;;;37.35;4.32;;;5.40;99.90;;;;;;5035679;28;20104;-74
2022/01/05 12:56:23;;;;;;;25.90;3.63;;;5.40;99.90;;;;;;5035971;28;20025;-75